createdAt,value
2023-04-30T00:01:01.501Z,2.86
2023-04-30T00:03:30.964Z,2.72
2023-04-30T00:06:02.786Z,2.80
2023-04-30T00:08:32.027Z,2.72
2023-04-30T00:11:01.245Z,2.69
2023-04-30T00:13:35.780Z,2.55
2023-04-30T00:16:05.418Z,2.65
2023-04-30T00:18:34.717Z,2.74
2023-04-30T00:21:06.685Z,2.69
2023-04-30T00:23:36.355Z,2.67
2023-04-30T00:26:05.708Z,2.72
2023-04-30T00:28:46.522Z,2.48
2023-04-30T00:31:15.981Z,2.47
2023-04-30T00:33:45.242Z,2.59
2023-04-30T00:36:21.684Z,2.56
2023-04-30T00:38:51.473Z,2.51
2023-04-30T00:41:21.459Z,2.47
2023-04-30T00:46:25.552Z,2.32
2023-04-30T00:48:55.092Z,2.39
2023-04-30T00:51:26.486Z,2.46
2023-04-30T00:53:56.253Z,2.51
2023-04-30T00:56:25.526Z,2.50
2023-04-30T00:58:57.113Z,2.50
2023-04-30T01:01:28.644Z,2.49
2023-04-30T01:03:59.036Z,2.40
2023-04-30T01:06:31.272Z,2.38
2023-04-30T01:09:05.874Z,2.44
2023-04-30T01:11:49.966Z,2.47
2023-04-30T01:14:30.767Z,2.43
2023-04-30T01:17:07.469Z,2.30
2023-04-30T01:19:45.496Z,2.18
2023-04-30T01:22:37.968Z,2.14
2023-04-30T01:25:24.009Z,2.10
2023-04-30T01:28:07.999Z,2.19
2023-04-30T01:30:45.400Z,2.21
2023-04-30T01:36:20.613Z,2.11
2023-04-30T01:39:10.437Z,2.17
2023-04-30T01:41:57.333Z,2.29
2023-04-30T01:44:45.103Z,2.37
2023-04-30T01:47:32.615Z,2.37
2023-04-30T01:50:12.497Z,2.41
2023-04-30T01:52:49.374Z,2.45
2023-04-30T01:55:25.933Z,2.47
2023-04-30T01:57:59.755Z,2.59
2023-04-30T02:00:32.655Z,2.78
2023-04-30T02:05:47.680Z,3.00
2023-04-30T02:08:17.059Z,3.12
2023-04-30T02:10:46.342Z,3.18
2023-04-30T02:13:33.834Z,3.28
2023-04-30T02:16:05.873Z,3.36
2023-04-30T02:18:40.365Z,3.41
2023-04-30T02:21:09.613Z,3.44
2023-04-30T02:23:38.791Z,3.45
2023-04-30T02:26:08.456Z,3.34
2023-04-30T02:28:37.839Z,3.41
2023-04-30T02:31:10.088Z,3.50
2023-04-30T02:33:39.968Z,3.57
2023-04-30T02:36:09.182Z,3.66
2023-04-30T02:38:38.421Z,3.79
2023-04-30T02:41:07.842Z,3.71
2023-04-30T02:43:37.044Z,3.76
2023-04-30T02:46:06.415Z,3.82
2023-04-30T02:48:37.590Z,3.81
2023-04-30T02:53:49.302Z,3.81
2023-04-30T02:56:18.451Z,3.88
2023-04-30T02:58:47.784Z,3.95
2023-04-30T03:01:17.489Z,3.99
2023-04-30T03:03:54.013Z,4.00
2023-04-30T03:06:28.413Z,3.97
2023-04-30T03:08:57.679Z,3.94
2023-04-30T03:11:27.185Z,3.91
2023-04-30T03:13:56.971Z,3.77
2023-04-30T03:16:26.592Z,3.88
2023-04-30T03:19:04.411Z,3.86
2023-04-30T03:21:33.972Z,3.89
2023-04-30T03:24:09.147Z,3.89
2023-04-30T03:26:38.567Z,3.86
2023-04-30T03:29:07.865Z,3.88
2023-04-30T03:31:38.053Z,3.93
2023-04-30T03:34:09.372Z,3.90
2023-04-30T03:36:38.890Z,4.08
2023-04-30T03:39:09.880Z,4.10
2023-04-30T03:41:39.540Z,4.16
2023-04-30T03:44:15.436Z,4.26
2023-04-30T03:46:45.219Z,4.33
2023-04-30T03:51:56.897Z,4.50
2023-04-30T03:54:26.254Z,4.68
2023-04-30T03:56:56.694Z,4.87
2023-04-30T03:59:26.647Z,5.17
2023-04-30T04:01:56.197Z,5.44
2023-04-30T04:04:27.535Z,5.56
2023-04-30T04:06:57.136Z,5.81
2023-04-30T04:09:26.966Z,5.89
2023-04-30T04:11:56.294Z,6.15
2023-04-30T04:14:30.513Z,6.35
2023-04-30T04:17:00.128Z,6.35
2023-04-30T04:19:31.433Z,6.56
2023-04-30T04:22:05.797Z,6.68
2023-04-30T04:24:36.228Z,6.68
2023-04-30T04:27:05.547Z,6.66
2023-04-30T04:29:35.545Z,6.61
2023-04-30T04:32:06.387Z,6.64
2023-04-30T04:34:38.237Z,6.71
2023-04-30T04:37:17.993Z,6.88
2023-04-30T04:39:47.430Z,6.83
2023-04-30T04:42:17.671Z,7.15
2023-04-30T04:44:53.212Z,7.34
2023-04-30T04:47:22.901Z,7.46
2023-04-30T04:49:54.388Z,7.59
2023-04-30T04:52:23.997Z,7.77
2023-04-30T04:54:55.279Z,7.86
2023-04-30T04:57:24.672Z,7.89
2023-04-30T04:59:54.284Z,8.13
2023-04-30T05:02:29.727Z,8.12
2023-04-30T05:05:01.574Z,8.27
2023-04-30T05:07:34.729Z,8.27
2023-04-30T05:10:10.035Z,8.29
2023-04-30T05:12:39.566Z,8.15
2023-04-30T05:15:09.911Z,8.20
2023-04-30T05:17:39.212Z,8.28
2023-04-30T05:20:12.278Z,8.31
2023-04-30T05:22:41.703Z,8.36
2023-04-30T05:25:11.769Z,8.43
2023-04-30T05:27:41.303Z,8.42
2023-04-30T05:30:12.492Z,8.38
2023-04-30T05:32:42.003Z,8.39
2023-04-30T05:35:13.485Z,8.38
2023-04-30T05:37:42.873Z,8.43
2023-04-30T05:40:13.593Z,8.47
2023-04-30T05:42:43.374Z,8.57
2023-04-30T05:45:16.907Z,8.56
2023-04-30T05:47:46.791Z,8.59
2023-04-30T05:50:23.613Z,8.79
2023-04-30T05:52:58.161Z,8.84
2023-04-30T05:55:27.417Z,8.97
2023-04-30T05:57:56.740Z,9.07
2023-04-30T06:00:31.367Z,9.34
2023-04-30T06:03:00.811Z,9.44
2023-04-30T06:05:32.189Z,9.46
2023-04-30T06:08:01.606Z,9.41
2023-04-30T06:10:31.056Z,9.60
2023-04-30T06:13:05.529Z,9.68
2023-04-30T06:15:35.310Z,9.80
2023-04-30T06:18:05.319Z,9.97
2023-04-30T06:20:36.791Z,10.13
2023-04-30T06:23:11.232Z,10.44
2023-04-30T06:25:41.391Z,10.50
2023-04-30T06:28:12.139Z,10.58
2023-04-30T06:30:42.485Z,10.64
2023-04-30T06:33:11.937Z,10.73
2023-04-30T06:35:43.081Z,10.47
2023-04-30T06:38:12.359Z,10.47
2023-04-30T06:40:41.722Z,10.53
2023-04-30T06:43:19.057Z,10.52
2023-04-30T06:45:48.360Z,10.69
2023-04-30T06:48:17.588Z,10.72
2023-04-30T06:50:48.929Z,10.87
2023-04-30T06:53:18.348Z,11.07
2023-04-30T06:55:49.149Z,11.08
2023-04-30T06:58:18.546Z,10.93
2023-04-30T07:00:47.817Z,10.83
2023-04-30T07:03:17.417Z,10.91
2023-04-30T07:05:48.873Z,10.97
2023-04-30T07:08:18.608Z,11.10
2023-04-30T07:10:47.943Z,11.13
2023-04-30T07:13:17.255Z,11.14
2023-04-30T07:15:47.006Z,11.08
2023-04-30T07:18:16.876Z,11.13
2023-04-30T07:20:46.254Z,11.38
2023-04-30T07:23:22.807Z,11.57
2023-04-30T07:25:52.380Z,11.75
2023-04-30T07:28:21.686Z,11.85
2023-04-30T07:30:51.110Z,11.81
2023-04-30T07:33:21.894Z,11.59
2023-04-30T07:35:51.347Z,11.56
2023-04-30T07:38:23.641Z,11.49
2023-04-30T07:40:53.175Z,11.54
2023-04-30T07:43:22.494Z,11.68
2023-04-30T07:45:53.100Z,11.62
2023-04-30T07:48:22.877Z,11.83
2023-04-30T07:50:52.838Z,11.92
2023-04-30T07:56:04.519Z,11.69
2023-04-30T07:58:33.822Z,11.62
2023-04-30T08:01:03.642Z,11.75
2023-04-30T08:03:33.000Z,11.81
2023-04-30T08:06:03.231Z,11.74
2023-04-30T08:08:39.362Z,11.61
2023-04-30T08:11:08.573Z,11.49
2023-04-30T08:13:37.802Z,11.31
2023-04-30T08:16:12.235Z,11.13
2023-04-30T08:18:44.458Z,11.17
2023-04-30T08:21:14.435Z,11.23
2023-04-30T08:23:51.145Z,11.43
2023-04-30T08:26:20.793Z,11.49
2023-04-30T08:28:50.055Z,11.47
2023-04-30T08:31:19.981Z,11.41
2023-04-30T08:33:54.720Z,11.53
2023-04-30T08:36:24.062Z,11.53
2023-04-30T08:38:58.090Z,11.51
2023-04-30T08:41:35.132Z,11.28
2023-04-30T08:44:26.734Z,11.17
2023-04-30T08:46:57.884Z,11.17
2023-04-30T08:49:27.906Z,11.16
2023-04-30T08:52:16.302Z,11.22
2023-04-30T08:54:49.200Z,11.32
2023-04-30T08:57:18.588Z,11.29
2023-04-30T08:59:48.111Z,11.33
2023-04-30T09:02:17.521Z,11.31
2023-04-30T09:04:47.792Z,11.47
2023-04-30T09:07:27.749Z,11.52
2023-04-30T09:10:04.634Z,11.52
2023-04-30T09:15:47.420Z,11.47
2023-04-30T09:18:18.046Z,11.45
2023-04-30T09:21:05.441Z,11.34
2023-04-30T09:23:40.122Z,11.26
2023-04-30T09:26:37.034Z,11.14
2023-04-30T09:29:10.058Z,11.37
2023-04-30T09:31:40.905Z,11.53
2023-04-30T09:34:10.674Z,11.62
2023-04-30T09:36:40.003Z,11.85
2023-04-30T09:39:13.313Z,11.89
2023-04-30T09:41:46.775Z,11.81
2023-04-30T09:44:32.279Z,11.76
2023-04-30T09:47:01.694Z,11.80
2023-04-30T09:49:31.146Z,11.73
2023-04-30T09:52:01.652Z,11.66
2023-04-30T09:54:32.655Z,11.66
2023-04-30T09:57:04.976Z,11.74
2023-04-30T09:59:37.644Z,11.73
2023-04-30T10:02:11.960Z,11.71
2023-04-30T10:04:43.981Z,11.50
2023-04-30T10:07:20.114Z,11.78
2023-04-30T10:09:53.131Z,11.78
2023-04-30T10:12:26.329Z,11.77
2023-04-30T10:15:08.158Z,11.79
2023-04-30T10:17:49.465Z,11.92
2023-04-30T10:20:21.174Z,12.03
2023-04-30T10:22:50.279Z,11.91
2023-04-30T10:25:19.912Z,11.76
2023-04-30T10:30:28.440Z,11.67
2023-04-30T10:33:06.047Z,11.70
2023-04-30T10:35:44.774Z,11.63
2023-04-30T10:38:22.010Z,11.56
2023-04-30T10:40:51.605Z,11.62
2023-04-30T10:43:22.981Z,11.71
2023-04-30T10:45:52.489Z,11.91
2023-04-30T10:48:29.112Z,11.96
2023-04-30T10:51:01.646Z,12.15
2023-04-30T10:53:34.789Z,11.98
2023-04-30T10:56:08.574Z,11.80
2023-04-30T10:58:45.257Z,11.92
2023-04-30T11:01:17.022Z,11.94
2023-04-30T11:04:07.943Z,11.76
2023-04-30T11:06:56.782Z,11.97
2023-04-30T11:09:43.751Z,11.87
2023-04-30T11:12:15.583Z,11.74
2023-04-30T11:14:53.450Z,11.65
2023-04-30T11:17:25.278Z,11.69
2023-04-30T11:19:56.256Z,11.72
2023-04-30T11:22:26.776Z,11.69
2023-04-30T11:25:14.289Z,11.65
2023-04-30T11:27:44.921Z,11.61
2023-04-30T11:30:17.828Z,11.69
2023-04-30T11:33:03.138Z,11.72
2023-04-30T11:38:23.934Z,11.94
2023-04-30T11:41:00.160Z,11.82
2023-04-30T11:43:30.765Z,11.76
2023-04-30T11:46:14.870Z,11.70
2023-04-30T11:48:46.637Z,11.53
2023-04-30T11:51:21.673Z,11.47
2023-04-30T11:53:57.683Z,11.42
2023-04-30T11:56:32.032Z,11.39
2023-04-30T11:59:01.374Z,11.30
2023-04-30T12:01:33.484Z,11.34
2023-04-30T12:04:03.939Z,11.27
2023-04-30T12:06:33.647Z,11.23
2023-04-30T12:09:04.634Z,11.09
2023-04-30T12:11:34.679Z,11.18
2023-04-30T12:14:07.200Z,11.16
2023-04-30T12:16:48.857Z,11.23
2023-04-30T12:19:18.790Z,11.24
2023-04-30T12:21:49.382Z,11.09
2023-04-30T12:24:20.218Z,11.04
2023-04-30T12:26:49.736Z,10.93
2023-04-30T12:29:20.968Z,10.99
2023-04-30T12:31:52.641Z,10.98
2023-04-30T12:34:30.524Z,10.80
2023-04-30T12:37:20.964Z,10.85
2023-04-30T12:39:58.038Z,10.84
2023-04-30T12:42:27.653Z,10.72
2023-04-30T12:51:46.798Z,10.65
2023-04-30T12:54:16.636Z,10.55
2023-04-30T12:59:39.810Z,10.67
2023-04-30T13:02:11.021Z,10.70
2023-04-30T13:04:41.037Z,10.69
2023-04-30T13:07:12.865Z,10.73
2023-04-30T13:09:41.967Z,10.84
2023-04-30T13:12:11.737Z,10.75
2023-04-30T13:14:41.106Z,10.73
2023-04-30T13:17:12.075Z,10.65
2023-04-30T13:19:44.889Z,10.57
2023-04-30T13:22:16.348Z,10.52
2023-04-30T13:24:45.785Z,10.46
2023-04-30T13:27:15.043Z,10.43
2023-04-30T13:29:44.411Z,10.38
2023-04-30T13:32:13.679Z,10.30
2023-04-30T13:34:42.992Z,10.34
2023-04-30T13:37:12.606Z,10.26
2023-04-30T13:39:44.157Z,10.14
2023-04-30T13:42:13.398Z,10.31
2023-04-30T13:44:49.613Z,10.23
2023-04-30T13:47:19.391Z,10.20
2023-04-30T13:49:48.663Z,10.18
2023-04-30T13:52:18.076Z,10.09
2023-04-30T13:54:49.590Z,10.09
2023-04-30T13:57:18.997Z,10.06
2023-04-30T13:59:48.694Z,10.09
2023-04-30T14:02:18.306Z,10.13
2023-04-30T14:05:02.108Z,10.18
2023-04-30T14:07:40.362Z,10.16
2023-04-30T14:10:12.486Z,10.21
2023-04-30T14:12:48.966Z,10.12
2023-04-30T14:15:33.771Z,10.14
2023-04-30T14:18:08.202Z,10.12
2023-04-30T14:20:37.509Z,10.09
2023-04-30T14:23:06.974Z,10.07
2023-04-30T14:25:38.579Z,10.00
2023-04-30T14:28:08.166Z,10.02
2023-04-30T14:30:37.427Z,10.00
2023-04-30T14:33:06.948Z,10.00
2023-04-30T14:35:36.737Z,10.02
2023-04-30T14:38:05.991Z,10.01
2023-04-30T14:40:42.331Z,10.03
2023-04-30T14:43:17.221Z,9.97
2023-04-30T14:45:46.903Z,9.93
2023-04-30T14:48:16.351Z,9.97
2023-04-30T14:50:46.151Z,9.84
2023-04-30T14:53:15.575Z,9.93
2023-04-30T14:55:46.796Z,9.84
2023-04-30T14:58:16.200Z,9.87
2023-04-30T15:01:04.130Z,9.69
2023-04-30T15:03:33.741Z,9.79
2023-04-30T15:06:04.287Z,9.82
2023-04-30T15:08:40.203Z,9.80
2023-04-30T15:11:12.890Z,9.77
2023-04-30T15:13:42.404Z,9.49
2023-04-30T15:16:17.049Z,9.59
2023-04-30T15:18:46.804Z,9.68
2023-04-30T15:21:16.117Z,9.64
2023-04-30T15:23:45.580Z,9.64
2023-04-30T15:26:18.982Z,9.60
2023-04-30T15:28:48.557Z,9.56
2023-04-30T15:31:17.829Z,9.62
2023-04-30T15:33:52.211Z,9.58
2023-04-30T15:36:26.648Z,9.57
2023-04-30T15:38:55.945Z,9.58
2023-04-30T15:41:27.378Z,9.57
2023-04-30T15:43:56.948Z,9.50
2023-04-30T15:46:26.396Z,9.52
2023-04-30T15:49:05.875Z,9.50
2023-04-30T15:51:36.339Z,9.52
2023-04-30T15:54:06.970Z,9.33
2023-04-30T15:56:58.025Z,9.27
2023-04-30T15:59:27.464Z,9.32
2023-04-30T16:01:57.084Z,9.31
2023-04-30T16:04:26.701Z,9.27
2023-04-30T16:09:31.467Z,9.13
2023-04-30T16:12:10.628Z,9.10
2023-04-30T16:14:40.820Z,9.02
2023-04-30T16:17:10.378Z,8.82
2023-04-30T16:19:40.726Z,9.00
2023-04-30T16:22:10.208Z,8.95
2023-04-30T16:24:39.488Z,8.90
2023-04-30T16:27:12.013Z,8.78
2023-04-30T16:29:46.759Z,8.81
2023-04-30T16:32:16.200Z,8.80
2023-04-30T16:34:45.739Z,8.81
2023-04-30T16:37:15.757Z,8.71
2023-04-30T16:39:45.232Z,8.59
2023-04-30T16:42:16.510Z,8.56
2023-04-30T16:44:45.959Z,8.49
2023-04-30T16:47:21.981Z,8.47
2023-04-30T16:49:51.399Z,8.33
2023-04-30T16:52:34.194Z,8.22
2023-04-30T16:55:04.298Z,8.16
2023-04-30T16:57:36.610Z,8.02
2023-04-30T17:00:11.071Z,7.90
2023-04-30T17:05:22.317Z,7.54
2023-04-30T17:07:51.753Z,7.51
2023-04-30T17:10:27.059Z,7.47
2023-04-30T17:12:59.587Z,7.37
2023-04-30T17:15:33.941Z,7.38
2023-04-30T17:18:03.378Z,7.33
2023-04-30T17:20:33.558Z,7.29
2023-04-30T17:23:03.334Z,6.94
2023-04-30T17:25:33.388Z,7.12
2023-04-30T17:28:05.147Z,6.83
2023-04-30T17:30:35.693Z,6.89
2023-04-30T17:33:05.680Z,6.89
2023-04-30T17:35:35.294Z,6.78
2023-04-30T17:38:15.077Z,6.63
2023-04-30T17:40:44.333Z,6.55
2023-04-30T17:43:15.548Z,6.60
2023-04-30T17:45:45.294Z,6.62
2023-04-30T17:48:19.693Z,6.63
2023-04-30T17:50:49.083Z,6.55
2023-04-30T17:53:18.220Z,6.59
2023-04-30T17:55:47.593Z,6.65
2023-04-30T17:58:46.043Z,6.61
2023-04-30T18:01:15.525Z,6.54
2023-04-30T18:03:44.967Z,6.46
2023-04-30T18:06:14.663Z,6.50
2023-04-30T18:08:44.123Z,6.47
2023-04-30T18:11:18.588Z,6.47
2023-04-30T18:13:49.827Z,6.46
2023-04-30T18:16:19.756Z,6.37
2023-04-30T18:18:55.743Z,6.34
2023-04-30T18:21:40.073Z,6.19
2023-04-30T18:24:10.242Z,6.27
2023-04-30T18:26:44.623Z,6.22
2023-04-30T18:29:17.735Z,6.19
2023-04-30T18:31:47.399Z,6.14
2023-04-30T18:34:16.783Z,6.13
2023-04-30T18:36:46.142Z,6.22
2023-04-30T18:39:15.477Z,6.16
2023-04-30T18:41:44.777Z,6.10
2023-04-30T18:44:16.095Z,6.10
2023-04-30T18:46:50.719Z,6.08
2023-04-30T18:49:19.994Z,6.06
2023-04-30T18:51:49.288Z,5.92
2023-04-30T18:54:18.514Z,5.97
2023-04-30T18:56:47.776Z,6.03
2023-04-30T18:59:21.579Z,6.04
2023-04-30T19:01:51.292Z,6.04
2023-04-30T19:04:20.597Z,6.03
2023-04-30T19:07:02.857Z,6.05
2023-04-30T19:09:48.154Z,6.03
2023-04-30T19:12:27.477Z,6.01
2023-04-30T19:14:58.664Z,6.03
2023-04-30T19:17:30.204Z,5.98
2023-04-30T19:20:00.324Z,5.94
2023-04-30T19:22:29.582Z,5.82
2023-04-30T19:24:58.860Z,5.99
2023-04-30T19:27:28.958Z,5.99
2023-04-30T19:30:07.235Z,5.95
2023-04-30T19:32:36.647Z,5.95
2023-04-30T19:35:06.689Z,5.91
2023-04-30T19:40:12.397Z,5.88
2023-04-30T19:42:41.933Z,5.92
2023-04-30T19:45:13.880Z,5.83
2023-04-30T19:47:43.399Z,5.91
2023-04-30T19:50:36.351Z,5.89
2023-04-30T19:53:05.694Z,5.91
2023-04-30T19:55:35.058Z,5.90
2023-04-30T19:58:09.460Z,5.93
2023-04-30T20:00:44.881Z,5.98
2023-04-30T20:03:15.876Z,5.99
2023-04-30T20:05:46.300Z,5.86
2023-04-30T20:08:21.611Z,5.98
2023-04-30T20:10:50.925Z,5.86
2023-04-30T20:13:20.685Z,6.00
2023-04-30T20:15:52.464Z,5.95
2023-04-30T20:18:21.459Z,6.00
2023-04-30T20:20:50.517Z,5.89
2023-04-30T20:23:31.422Z,5.67
2023-04-30T20:26:05.928Z,5.80
2023-04-30T20:28:36.423Z,5.81
2023-04-30T20:31:09.179Z,5.84
2023-04-30T20:33:40.844Z,5.70
2023-04-30T20:36:17.044Z,5.81
2023-04-30T20:38:46.799Z,5.66
2023-04-30T20:41:16.014Z,5.84
2023-04-30T20:43:45.669Z,5.54
2023-04-30T20:46:16.903Z,5.79
2023-04-30T20:49:04.764Z,5.78
2023-04-30T20:51:39.869Z,5.77
2023-04-30T20:54:09.472Z,5.75
2023-04-30T20:56:44.808Z,5.88
2023-04-30T20:59:13.974Z,5.84
2023-04-30T21:01:59.329Z,5.82
2023-04-30T21:04:28.770Z,5.70
2023-04-30T21:06:58.086Z,5.55
2023-04-30T21:09:27.504Z,5.79
2023-04-30T21:11:57.001Z,5.77
2023-04-30T21:14:32.179Z,5.75
2023-04-30T21:17:13.962Z,5.73
2023-04-30T21:19:43.631Z,5.81
2023-04-30T21:22:28.388Z,5.78
2023-04-30T21:25:02.885Z,5.77
2023-04-30T21:27:34.719Z,5.81
2023-04-30T21:30:04.195Z,5.82
2023-04-30T21:32:37.083Z,5.85
2023-04-30T21:35:07.422Z,5.88
2023-04-30T21:37:37.170Z,5.89
2023-04-30T21:40:07.500Z,5.97
2023-04-30T21:42:36.703Z,6.00
2023-04-30T21:45:24.569Z,5.97
2023-04-30T21:47:55.981Z,5.88
2023-04-30T21:50:39.011Z,5.92
2023-04-30T21:53:08.591Z,5.95
2023-04-30T21:55:37.974Z,6.03
2023-04-30T21:58:22.077Z,6.05
2023-04-30T22:00:51.434Z,6.08
2023-04-30T22:03:27.890Z,6.10
2023-04-30T22:06:25.168Z,6.14
2023-04-30T22:08:59.543Z,6.18
2023-04-30T22:11:29.018Z,6.18
2023-04-30T22:13:58.614Z,6.19
2023-04-30T22:16:32.880Z,6.18
2023-04-30T22:19:04.149Z,6.17
2023-04-30T22:21:40.329Z,6.16
2023-04-30T22:24:09.494Z,6.20
2023-04-30T22:26:57.603Z,6.21
2023-04-30T22:29:26.956Z,6.22
2023-04-30T22:31:56.189Z,6.29
2023-04-30T22:34:27.519Z,6.30
2023-04-30T22:36:56.819Z,6.26
2023-04-30T22:39:26.356Z,6.20
2023-04-30T22:41:55.908Z,6.22
2023-04-30T22:44:26.009Z,6.20
2023-04-30T22:46:58.762Z,6.04
2023-04-30T22:49:32.383Z,6.11
2023-04-30T22:52:02.837Z,6.01
2023-04-30T22:54:32.690Z,6.01
2023-04-30T22:57:02.720Z,5.96
2023-04-30T23:02:07.322Z,5.96
2023-04-30T23:04:38.778Z,5.90
2023-04-30T23:07:08.101Z,5.95
2023-04-30T23:09:37.264Z,5.95
2023-04-30T23:12:06.920Z,5.94
2023-04-30T23:14:37.217Z,5.82
2023-04-30T23:17:06.970Z,5.96
2023-04-30T23:19:38.967Z,6.00
2023-04-30T23:22:07.927Z,6.05
2023-04-30T23:24:38.326Z,5.95
2023-04-30T23:27:13.192Z,5.96
2023-04-30T23:29:42.560Z,5.78
2023-04-30T23:32:11.912Z,5.97
2023-04-30T23:34:43.080Z,6.01
2023-04-30T23:37:13.493Z,6.02
2023-04-30T23:39:43.091Z,5.91
2023-04-30T23:42:13.309Z,5.63
2023-04-30T23:44:42.569Z,5.98
2023-04-30T23:47:12.140Z,5.97
2023-04-30T23:49:45.804Z,5.94
2023-04-30T23:52:25.573Z,5.96
2023-04-30T23:54:54.813Z,5.98
2023-04-30T23:57:24.278Z,5.99
2023-04-30T23:59:53.810Z,5.99
